Time;durP1;ratioP1;P1;durP2;ratioP2;P2;SDS_P1;SDS_P2;PMS_P1;PMS_P2;Temp;Humidity;BMP_temperature;BMP_pressure;BME280_temperature;BME280_humidity;BME280_pressure;Samples;Min_cycle;Max_cycle;Signal;HPM_P1;HPM_P2
2024/01/16 11:01:11;;;;;;;8.17;4.07;;;;;;;5.45;66.96;98377.38;5171153;27;21101;-80
2024/01/16 11:03:43;;;;;;;7.43;3.90;;;;;;;6.73;61.45;98414.53;5153710;27;39771;-83
2024/01/16 11:06:13;;;;;;;8.97;5.03;;;;;;;7.56;56.43;98422.16;5136213;27;40502;-83
2024/01/16 11:08:42;;;;;;;8.30;4.50;;;;;;;8.38;55.77;98418.25;5136408;27;41777;-82
2024/01/16 11:11:10;;;;;;;6.57;3.80;;;;;;;9.02;51.44;98434.44;5135869;27;40818;-84
2024/01/16 11:13:38;;;;;;;5.97;3.40;;;;;;;9.78;48.92;98454.25;5136328;27;40395;-84
2024/01/16 11:16:08;;;;;;;6.87;2.93;;;;;;;9.67;47.97;98463.72;5135977;27;41208;-82
2024/01/16 11:18:36;;;;;;;7.40;3.10;;;;;;;9.41;48.20;98461.91;5135565;27;41485;-81
2024/01/16 11:21:07;;;;;;;2.93;2.60;;;;;;;9.09;48.79;98429.63;5171751;27;42313;-83
2024/01/16 11:23:35;;;;;;;4.63;3.00;;;;;;;8.90;48.24;98435.22;5136324;27;38643;-83
2024/01/16 11:26:25;;;;;;;5.17;3.20;;;;;;;8.68;48.20;98429.56;5136128;27;42483;-83
2024/01/16 11:28:53;;;;;;;3.83;2.30;;;;;;;8.61;48.22;98438.81;5135566;27;41606;-82
2024/01/16 11:31:45;;;;;;;4.73;2.80;;;;;;;8.82;48.48;98440.13;5136348;27;41129;-85
2024/01/16 11:34:13;;;;;;;4.13;2.80;;;;;;;8.79;48.74;98427.09;5115348;27;39795;-86
2024/01/16 11:36:48;;;;;;;4.53;2.93;;;;;;;8.60;47.92;98431.84;5115616;27;41922;-85
2024/01/16 11:39:19;;;;;;;5.90;3.13;;;;;;;8.50;48.01;98430.72;5143174;27;41844;-85
2024/01/16 11:41:53;;;;;;;5.07;3.43;;;;;;;8.44;48.02;98431.06;5144837;27;41603;-84
2024/01/16 11:44:42;;;;;;;4.43;3.07;;;;;;;8.44;48.19;98436.34;5158972;27;40437;-85
2024/01/16 11:47:16;;;;;;;4.87;3.13;;;;;;;8.44;48.33;98431.06;5144509;27;41836;-85
2024/01/16 11:49:44;;;;;;;7.20;3.73;;;;;;;8.60;49.01;98416.84;5144577;27;42967;-85
2024/01/16 11:52:12;;;;;;;4.87;3.30;;;;;;;8.66;48.62;98405.06;5142476;27;41251;-88
2024/01/16 11:54:41;;;;;;;5.07;3.40;;;;;;;8.75;47.99;98395.72;5135027;27;38934;-86
2024/01/16 11:57:48;;;;;;;5.40;3.40;;;;;;;8.93;48.84;98399.84;5135726;27;41272;-90
2024/01/16 12:00:22;;;;;;;5.43;3.80;;;;;;;9.24;47.48;98407.53;5114317;27;44259;-86
2024/01/16 12:02:57;;;;;;;6.87;3.73;;;;;;;9.58;47.38;98400.91;5115477;27;41655;-90
2024/01/16 12:05:26;;;;;;;7.93;3.67;;;;;;;9.61;45.61;98389.28;5135491;27;39200;-86
2024/01/16 12:07:54;;;;;;;7.77;4.07;;;;;;;9.64;45.79;98410.22;5135258;27;40525;-89
2024/01/16 12:10:23;;;;;;;6.13;3.83;;;;;;;9.46;46.08;98403.50;5132736;27;44651;-90
2024/01/16 12:12:52;;;;;;;6.87;4.33;;;;;;;9.34;46.85;98370.78;5121496;27;42665;-88
2024/01/16 12:15:21;;;;;;;5.93;4.20;;;;;;;9.40;46.82;98373.00;5120883;27;39191;-85
2024/01/16 12:17:58;;;;;;;9.27;4.73;;;;;;;9.25;45.40;98350.25;5121264;27;41039;-84
2024/01/16 12:20:29;;;;;;;5.20;3.63;;;;;;;9.17;46.00;98360.44;5120791;27;41843;-85
2024/01/16 12:22:58;;;;;;;6.30;3.90;;;;;;;9.21;45.93;98367.25;5135152;27;42102;-86
2024/01/16 12:25:26;;;;;;;8.23;3.87;;;;;;;9.18;45.63;98364.78;5137755;27;40068;-89
2024/01/16 12:27:58;;;;;;;8.63;4.37;;;;;;;9.09;46.50;98345.09;5121191;27;42580;-87
2024/01/16 12:30:28;;;;;;;7.30;4.17;;;;;;;9.42;46.48;98347.34;5138024;27;41855;-87
2024/01/16 12:33:23;;;;;;;5.37;4.40;;;;;;;9.96;45.50;98341.94;5120489;27;41095;-85
2024/01/16 12:35:50;;;;;;;8.17;3.63;;;;;;;10.43;44.52;98342.19;5120741;27;39324;-87
2024/01/16 12:38:18;;;;;;;5.47;3.93;;;;;;;10.68;43.96;98343.09;5120997;27;42691;-85
2024/01/16 12:40:50;;;;;;;7.67;4.00;;;;;;;11.57;43.37;98340.13;5136872;27;41850;-87
2024/01/16 12:43:19;;;;;;;5.13;3.50;;;;;;;11.68;42.56;98370.19;5120627;27;41484;-87
2024/01/16 12:45:47;;;;;;;10.57;3.53;;;;;;;11.52;42.46;98353.72;5120125;27;40169;-84
2024/01/16 12:48:23;;;;;;;4.50;3.13;;;;;;;10.99;43.36;98355.88;5138078;27;40341;-86
2024/01/16 12:50:51;;;;;;;5.43;4.17;;;;;;;10.48;43.20;98359.56;5120048;27;42830;-87
2024/01/16 12:53:24;;;;;;;4.30;3.50;;;;;;;9.96;43.92;98337.50;5120385;27;42451;-88
2024/01/16 12:55:59;;;;;;;7.00;3.97;;;;;;;9.53;44.98;98323.69;5120085;27;39339;-88
2024/01/16 12:58:34;;;;;;;4.90;3.33;;;;;;;9.26;45.65;98329.03;5120103;27;40247;-85
2024/01/16 13:01:23;;;;;;;7.73;4.07;;;;;;;8.98;45.66;98337.88;5119444;27;41658;-85
2024/01/16 13:03:52;;;;;;;5.00;3.93;;;;;;;8.62;46.42;98332.31;5120191;27;41565;-86
2024/01/16 13:06:21;;;;;;;6.43;3.73;;;;;;;8.35;47.32;98328.75;5119893;27;38817;-88
2024/01/16 13:08:49;;;;;;;7.37;4.23;;;;;;;8.06;46.84;98331.31;5120166;27;41057;-88
2024/01/16 13:11:19;;;;;;;6.33;3.90;;;;;;;7.95;48.00;98317.94;5119511;27;42086;-84
2024/01/16 13:13:48;;;;;;;6.27;3.93;;;;;;;7.80;48.65;98292.50;5119809;27;41177;-86
2024/01/16 13:16:17;;;;;;;7.80;4.20;;;;;;;7.69;48.91;98268.59;5119559;27;38736;-90
2024/01/16 13:18:45;;;;;;;10.03;4.47;;;;;;;7.67;48.89;98281.84;5119620;27;40784;-89
2024/01/16 13:21:14;;;;;;;7.50;3.80;;;;;;;7.56;49.16;98281.66;5119137;27;42912;-85
2024/01/16 13:23:42;;;;;;;5.50;3.60;;;;;;;7.28;48.66;98269.28;5135954;27;41858;-86
2024/01/16 13:26:09;;;;;;;6.53;4.30;;;;;;;7.07;48.66;98286.28;5119513;27;39034;-88
2024/01/16 13:28:37;;;;;;;7.53;4.57;;;;;;;6.72;49.25;98260.22;5137136;27;41839;-85
2024/01/16 13:31:05;;;;;;;6.23;4.00;;;;;;;6.65;49.73;98268.53;5119643;27;41553;-82
2024/01/16 13:33:32;;;;;;;6.17;3.37;;;;;;;6.54;50.03;98271.78;5119981;27;41191;-83
2024/01/16 13:36:00;;;;;;;7.87;3.93;;;;;;;6.32;50.23;98261.56;5119742;27;41015;-88
2024/01/16 13:38:29;;;;;;;6.53;3.80;;;;;;;6.34;50.95;98277.28;5119674;27;42312;-85
2024/01/16 13:40:57;;;;;;;6.80;3.67;;;;;;;6.30;51.21;98275.75;5118877;27;44672;-86
2024/01/16 13:43:24;;;;;;;6.00;3.73;;;;;;;6.26;51.08;98266.34;5136426;27;41051;-84
2024/01/16 13:45:52;;;;;;;5.63;3.57;;;;;;;6.22;51.72;98241.13;5119512;27;39263;-84
2024/01/16 13:48:19;;;;;;;7.17;4.30;;;;;;;6.24;51.38;98249.78;5118887;27;40833;-86
2024/01/16 13:50:47;;;;;;;7.87;3.73;;;;;;;6.31;51.39;98259.00;5099110;27;43091;-88
2024/01/16 13:53:15;;;;;;;7.53;3.60;;;;;;;6.02;51.04;98236.97;5132009;27;41675;-86
2024/01/16 13:55:44;;;;;;;8.10;4.20;;;;;;;5.99;51.76;98237.97;5136413;27;40261;-87
2024/01/16 13:58:12;;;;;;;6.50;4.00;;;;;;;5.94;51.68;98234.72;5119005;27;41814;-84
2024/01/16 14:00:40;;;;;;;7.17;3.97;;;;;;;5.75;51.83;98218.22;5118598;27;41756;-87
2024/01/16 14:03:08;;;;;;;5.73;4.37;;;;;;;5.85;52.20;98223.84;5118926;27;41667;-88
2024/01/16 14:05:36;;;;;;;5.90;4.20;;;;;;;5.81;51.91;98230.22;5118776;27;39180;-88
2024/01/16 14:08:04;;;;;;;6.70;4.20;;;;;;;5.76;52.06;98247.06;5118885;27;41962;-84
2024/01/16 14:10:31;;;;;;;9.03;4.37;;;;;;;5.59;52.21;98227.84;5135617;27;43026;-85
2024/01/16 14:13:01;;;;;;;7.43;4.03;;;;;;;5.60;52.37;98229.53;5118728;27;42914;-86
2024/01/16 14:15:28;;;;;;;6.30;3.97;;;;;;;5.43;52.96;98232.22;5118509;27;39075;-85
2024/01/16 14:17:57;;;;;;;5.93;3.57;;;;;;;5.32;52.81;98219.63;5119361;27;40741;-88
2024/01/16 14:20:26;;;;;;;8.43;4.73;;;;;;;5.22;52.94;98213.16;5135584;27;43019;-85
2024/01/16 14:22:54;;;;;;;7.43;3.87;;;;;;;5.23;53.20;98230.59;5118649;27;42324;-84
2024/01/16 14:25:22;;;;;;;6.83;4.47;;;;;;;5.01;53.59;98210.69;5118227;27;39009;-84
2024/01/16 14:27:56;;;;;;;4.63;4.00;;;;;;;5.02;53.70;98219.41;5135375;27;42194;-84
2024/01/16 14:30:26;;;;;;;6.03;4.43;;;;;;;4.85;53.77;98204.50;5118673;27;41994;-86
2024/01/16 14:32:55;;;;;;;4.43;3.50;;;;;;;4.88;54.08;98219.25;5118436;27;41080;-87
2024/01/16 14:35:23;;;;;;;7.20;4.30;;;;;;;4.74;54.60;98203.34;5118161;27;39337;-90
2024/01/16 14:37:51;;;;;;;6.87;4.40;;;;;;;4.61;54.48;98196.09;5118194;27;42076;-88
2024/01/16 14:40:25;;;;;;;7.93;3.77;;;;;;;4.75;54.99;98228.66;5118019;27;42910;-87
2024/01/16 14:42:53;;;;;;;12.63;4.60;;;;;;;4.59;55.14;98205.78;5135939;27;41240;-88
2024/01/16 14:45:22;;;;;;;10.43;4.90;;;;;;;4.65;55.32;98217.75;5118537;27;38856;-88
2024/01/16 14:47:53;;;;;;;10.70;4.23;;;;;;;4.59;55.33;98229.38;5118302;27;41780;-88
2024/01/16 14:50:21;;;;;;;8.10;4.30;;;;;;;4.36;55.32;98200.81;5134493;27;43833;-88
2024/01/16 14:52:50;;;;;;;6.97;4.47;;;;;;;4.07;55.38;98162.06;5118672;27;41206;-88
2024/01/16 14:55:20;;;;;;;7.13;4.17;;;;;;;4.33;55.62;98207.03;5117762;27;39005;-88
2024/01/16 14:57:52;;;;;;;6.87;4.40;;;;;;;4.10;55.83;98188.09;5118151;27;41834;-90
2024/01/16 15:00:22;;;;;;;6.60;4.13;;;;;;;4.30;55.71;98227.34;5117484;27;41558;-90
2024/01/16 15:02:52;;;;;;;9.93;4.63;;;;;;;4.13;55.85;98211.53;5118372;27;41076;-87
2024/01/16 15:05:20;;;;;;;8.63;3.97;;;;;;;3.73;55.99;98168.84;5117757;27;39200;-86
2024/01/16 15:07:48;;;;;;;7.07;4.00;;;;;;;3.91;56.15;98204.69;5118314;27;41129;-88
2024/01/16 15:10:16;;;;;;;7.80;3.77;;;;;;;3.85;56.45;98204.94;5117324;27;43256;-88
2024/01/16 15:12:44;;;;;;;5.27;3.50;;;;;;;3.83;56.49;98211.22;5117953;27;41511;-88
2024/01/16 15:15:13;;;;;;;6.17;3.60;;;;;;;3.63;56.78;98193.75;5117808;27;39007;-89
2024/01/16 15:17:42;;;;;;;7.97;4.00;;;;;;;3.46;56.84;98178.00;5135118;27;42785;-88
2024/01/16 15:20:12;;;;;;;5.80;4.00;;;;;;;3.49;57.01;98193.53;5118022;27;43402;-87
2024/01/16 15:22:41;;;;;;;6.90;3.80;;;;;;;3.06;57.42;98144.88;5118024;27;43651;-87
2024/01/16 15:25:09;;;;;;;7.03;3.97;;;;;;;3.27;57.47;98200.63;5134524;27;41600;-90
2024/01/16 15:27:38;;;;;;;7.57;3.77;;;;;;;2.97;57.77;98167.03;5117888;27;41591;-88
2024/01/16 15:30:08;;;;;;;6.50;3.50;;;;;;;3.15;57.91;98208.09;5117049;27;44309;-85
2024/01/16 15:32:36;;;;;;;6.83;3.80;;;;;;;3.01;58.10;98207.84;5118127;27;41936;-85
2024/01/16 15:35:06;;;;;;;6.20;3.90;;;;;;;2.82;58.40;98193.84;5117975;27;39391;-86
2024/01/16 15:37:36;;;;;;;7.93;4.30;;;;;;;2.69;58.65;98197.88;5118700;27;40877;-86
2024/01/16 15:40:06;;;;;;;7.83;4.07;;;;;;;2.70;58.95;98210.06;5117426;27;41489;-83
2024/01/16 15:42:36;;;;;;;7.53;4.33;;;;;;;2.57;58.99;98209.69;5134917;27;42856;-85
2024/01/16 15:45:06;;;;;;;6.10;4.13;;;;;;;2.22;59.24;98155.41;5117398;27;40106;-84
2024/01/16 15:47:34;;;;;;;6.27;4.40;;;;;;;2.20;59.44;98183.34;5138342;27;42923;-88
2024/01/16 15:50:02;;;;;;;8.20;4.53;;;;;;;2.28;59.66;98196.94;5139257;27;43444;-88
2024/01/16 15:52:30;;;;;;;8.97;3.97;;;;;;;2.22;59.67;98187.59;5120635;27;42348;-89
2024/01/16 15:55:00;;;;;;;6.83;3.87;;;;;;;2.35;60.18;98209.69;5121307;27;39009;-89
2024/01/16 15:57:28;;;;;;;9.47;4.80;;;;;;;2.22;60.25;98190.22;5121202;27;41670;-89
2024/01/16 15:59:56;;;;;;;6.63;4.23;;;;;;;2.35;60.30;98204.47;5121330;27;41596;-89
2024/01/16 16:02:24;;;;;;;5.70;4.13;;;;;;;2.23;60.17;98189.28;5121125;27;42375;-89
2024/01/16 16:04:51;;;;;;;5.67;3.73;;;;;;;2.11;60.21;98174.94;5121700;27;39008;-88
2024/01/16 16:07:19;;;;;;;5.70;4.23;;;;;;;2.19;60.13;98190.34;5121258;27;40364;-88
2024/01/16 16:09:46;;;;;;;10.63;4.20;;;;;;;2.23;60.49;98199.72;5121182;27;43345;-88
2024/01/16 16:12:16;;;;;;;6.27;3.23;;;;;;;2.09;60.50;98186.38;5138258;27;42981;-89
2024/01/16 16:14:43;;;;;;;11.37;4.07;;;;;;;2.08;61.08;98192.50;5121694;27;40275;-87
2024/01/16 16:17:12;;;;;;;10.03;4.70;;;;;;;2.11;61.38;98215.88;5121019;27;40812;-87
2024/01/16 16:19:41;;;;;;;7.40;4.13;;;;;;;1.92;61.27;98191.41;5121284;27;43959;-87
2024/01/16 16:22:09;;;;;;;7.93;4.40;;;;;;;1.84;61.51;98185.63;5120754;27;41251;-87
2024/01/16 16:24:37;;;;;;;8.17;3.80;;;;;;;1.83;61.66;98194.38;5121079;27;39315;-87
2024/01/16 16:27:24;;;;;;;7.57;4.23;;;;;;;1.83;61.88;98200.44;5121576;27;40844;-88
2024/01/16 16:29:54;;;;;;;7.03;4.03;;;;;;;1.61;62.08;98176.03;5121249;27;43137;-87
2024/01/16 16:32:21;;;;;;;5.33;3.83;;;;;;;1.57;62.32;98170.09;5138359;27;41757;-86
2024/01/16 16:34:49;;;;;;;8.73;4.97;;;;;;;1.61;62.42;98187.31;5121398;27;39097;-87
2024/01/16 16:37:17;;;;;;;6.73;3.90;;;;;;;1.46;62.89;98169.66;5121148;27;40909;-89
2024/01/16 16:39:45;;;;;;;7.53;4.67;;;;;;;1.30;63.11;98147.63;5120701;27;43193;-88
2024/01/16 16:42:13;;;;;;;6.97;4.13;;;;;;;1.46;63.16;98179.25;5120864;27;41666;-86
2024/01/16 16:44:43;;;;;;;8.67;4.50;;;;;;;1.40;63.53;98185.53;5120933;27;39080;-86
